sensor_id;sensor_type;location;lat;lon;timestamp;P1;durP1;ratioP1;P2;durP2;ratioP2
49610;SDS011;35515;48.766;9.176;2023-06-22T00:01:57;12.23;;;7.70;;
49610;SDS011;35515;48.766;9.176;2023-06-22T00:04:24;8.90;;;7.38;;
49610;SDS011;35515;48.766;9.176;2023-06-22T00:06:51;11.52;;;7.82;;
49610;SDS011;35515;48.766;9.176;2023-06-22T00:09:19;8.38;;;6.90;;
49610;SDS011;35515;48.766;9.176;2023-06-22T00:11:45;9.98;;;7.50;;
49610;SDS011;35515;48.766;9.176;2023-06-22T00:14:12;10.00;;;7.35;;
49610;SDS011;35515;48.766;9.176;2023-06-22T00:16:38;11.25;;;7.72;;
49610;SDS011;35515;48.766;9.176;2023-06-22T00:19:06;11.55;;;8.50;;
49610;SDS011;35515;48.766;9.176;2023-06-22T00:21:32;9.27;;;7.70;;
49610;SDS011;35515;48.766;9.176;2023-06-22T00:23:59;10.90;;;7.78;;
49610;SDS011;35515;48.766;9.176;2023-06-22T00:26:27;11.88;;;7.95;;
49610;SDS011;35515;48.766;9.176;2023-06-22T00:28:53;11.40;;;7.20;;
49610;SDS011;35515;48.766;9.176;2023-06-22T00:31:20;10.27;;;7.57;;
49610;SDS011;35515;48.766;9.176;2023-06-22T00:33:46;11.07;;;8.27;;
49610;SDS011;35515;48.766;9.176;2023-06-22T00:36:15;12.18;;;7.30;;
49610;SDS011;35515;48.766;9.176;2023-06-22T00:38:42;11.20;;;7.97;;
49610;SDS011;35515;48.766;9.176;2023-06-22T00:41:09;8.32;;;7.38;;
49610;SDS011;35515;48.766;9.176;2023-06-22T00:43:37;9.60;;;7.20;;
49610;SDS011;35515;48.766;9.176;2023-06-22T00:46:03;9.75;;;7.50;;
49610;SDS011;35515;48.766;9.176;2023-06-22T00:48:30;12.63;;;7.60;;
49610;SDS011;35515;48.766;9.176;2023-06-22T00:50:57;10.30;;;7.60;;
49610;SDS011;35515;48.766;9.176;2023-06-22T00:53:23;10.88;;;7.43;;
49610;SDS011;35515;48.766;9.176;2023-06-22T00:55:50;12.25;;;7.72;;
49610;SDS011;35515;48.766;9.176;2023-06-22T00:58:17;13.93;;;7.90;;
49610;SDS011;35515;48.766;9.176;2023-06-22T01:00:48;8.47;;;7.40;;
49610;SDS011;35515;48.766;9.176;2023-06-22T01:03:15;9.15;;;7.30;;
49610;SDS011;35515;48.766;9.176;2023-06-22T01:05:42;11.15;;;7.20;;
49610;SDS011;35515;48.766;9.176;2023-06-22T01:08:23;10.32;;;7.57;;
49610;SDS011;35515;48.766;9.176;2023-06-22T01:10:58;11.15;;;7.15;;
49610;SDS011;35515;48.766;9.176;2023-06-22T01:13:32;9.27;;;7.32;;
49610;SDS011;35515;48.766;9.176;2023-06-22T01:16:05;10.18;;;7.70;;
49610;SDS011;35515;48.766;9.176;2023-06-22T01:18:40;10.60;;;7.88;;
49610;SDS011;35515;48.766;9.176;2023-06-22T01:21:10;8.07;;;7.25;;
49610;SDS011;35515;48.766;9.176;2023-06-22T01:23:45;10.57;;;7.30;;
49610;SDS011;35515;48.766;9.176;2023-06-22T01:26:18;9.43;;;6.60;;
49610;SDS011;35515;48.766;9.176;2023-06-22T01:28:49;8.98;;;7.68;;
49610;SDS011;35515;48.766;9.176;2023-06-22T01:31:19;9.07;;;7.00;;
49610;SDS011;35515;48.766;9.176;2023-06-22T01:33:49;11.53;;;7.27;;
49610;SDS011;35515;48.766;9.176;2023-06-22T01:36:18;12.40;;;7.83;;
49610;SDS011;35515;48.766;9.176;2023-06-22T01:38:47;13.25;;;8.15;;
49610;SDS011;35515;48.766;9.176;2023-06-22T01:41:14;12.75;;;8.93;;
49610;SDS011;35515;48.766;9.176;2023-06-22T01:43:42;9.48;;;7.13;;
49610;SDS011;35515;48.766;9.176;2023-06-22T01:46:11;9.20;;;7.75;;
49610;SDS011;35515;48.766;9.176;2023-06-22T01:48:38;11.55;;;7.38;;
49610;SDS011;35515;48.766;9.176;2023-06-22T01:51:05;10.30;;;7.53;;
49610;SDS011;35515;48.766;9.176;2023-06-22T01:53:32;11.35;;;7.65;;
49610;SDS011;35515;48.766;9.176;2023-06-22T01:55:59;9.60;;;7.40;;
49610;SDS011;35515;48.766;9.176;2023-06-22T01:58:26;10.27;;;7.32;;
49610;SDS011;35515;48.766;9.176;2023-06-22T02:00:56;9.57;;;7.05;;
49610;SDS011;35515;48.766;9.176;2023-06-22T02:03:31;10.68;;;7.55;;
49610;SDS011;35515;48.766;9.176;2023-06-22T02:06:04;11.10;;;6.88;;
49610;SDS011;35515;48.766;9.176;2023-06-22T02:08:35;11.65;;;7.20;;
49610;SDS011;35515;48.766;9.176;2023-06-22T02:11:04;10.73;;;6.75;;
49610;SDS011;35515;48.766;9.176;2023-06-22T02:13:32;9.52;;;7.05;;
49610;SDS011;35515;48.766;9.176;2023-06-22T02:15:59;10.38;;;7.30;;
49610;SDS011;35515;48.766;9.176;2023-06-22T02:18:26;8.68;;;6.85;;
49610;SDS011;35515;48.766;9.176;2023-06-22T02:20:54;10.07;;;7.68;;
49610;SDS011;35515;48.766;9.176;2023-06-22T02:23:21;10.45;;;7.10;;
49610;SDS011;35515;48.766;9.176;2023-06-22T02:25:47;9.90;;;7.78;;
49610;SDS011;35515;48.766;9.176;2023-06-22T02:28:14;9.57;;;7.43;;
49610;SDS011;35515;48.766;9.176;2023-06-22T02:30:40;10.43;;;7.47;;
49610;SDS011;35515;48.766;9.176;2023-06-22T02:33:07;8.90;;;6.88;;
49610;SDS011;35515;48.766;9.176;2023-06-22T02:35:33;8.50;;;7.00;;
49610;SDS011;35515;48.766;9.176;2023-06-22T02:38:02;8.23;;;6.78;;
49610;SDS011;35515;48.766;9.176;2023-06-22T02:40:30;9.55;;;7.40;;
49610;SDS011;35515;48.766;9.176;2023-06-22T02:42:57;11.13;;;7.63;;
49610;SDS011;35515;48.766;9.176;2023-06-22T02:45:26;11.05;;;7.45;;
49610;SDS011;35515;48.766;9.176;2023-06-22T02:47:53;10.30;;;7.78;;
49610;SDS011;35515;48.766;9.176;2023-06-22T02:50:20;10.50;;;6.75;;
49610;SDS011;35515;48.766;9.176;2023-06-22T02:52:46;10.13;;;7.20;;
49610;SDS011;35515;48.766;9.176;2023-06-22T02:55:14;8.65;;;6.97;;
49610;SDS011;35515;48.766;9.176;2023-06-22T02:57:41;12.65;;;7.70;;
49610;SDS011;35515;48.766;9.176;2023-06-22T03:00:09;11.20;;;7.95;;
49610;SDS011;35515;48.766;9.176;2023-06-22T03:02:42;14.98;;;8.30;;
49610;SDS011;35515;48.766;9.176;2023-06-22T03:05:08;10.05;;;7.28;;
49610;SDS011;35515;48.766;9.176;2023-06-22T03:07:38;9.40;;;7.50;;
49610;SDS011;35515;48.766;9.176;2023-06-22T03:10:06;13.48;;;8.02;;
49610;SDS011;35515;48.766;9.176;2023-06-22T03:12:35;10.48;;;7.85;;
49610;SDS011;35515;48.766;9.176;2023-06-22T03:15:02;12.63;;;8.77;;
49610;SDS011;35515;48.766;9.176;2023-06-22T03:17:29;11.63;;;7.30;;
49610;SDS011;35515;48.766;9.176;2023-06-22T03:19:56;11.63;;;7.72;;
49610;SDS011;35515;48.766;9.176;2023-06-22T03:22:22;9.77;;;7.70;;
49610;SDS011;35515;48.766;9.176;2023-06-22T03:24:49;10.73;;;8.13;;
49610;SDS011;35515;48.766;9.176;2023-06-22T03:27:15;12.02;;;7.82;;
49610;SDS011;35515;48.766;9.176;2023-06-22T03:29:44;10.05;;;7.85;;
49610;SDS011;35515;48.766;9.176;2023-06-22T03:32:10;10.48;;;7.57;;
49610;SDS011;35515;48.766;9.176;2023-06-22T03:34:37;12.23;;;8.80;;
49610;SDS011;35515;48.766;9.176;2023-06-22T03:37:04;14.18;;;8.02;;
49610;SDS011;35515;48.766;9.176;2023-06-22T03:39:31;11.85;;;7.38;;
49610;SDS011;35515;48.766;9.176;2023-06-22T03:41:57;9.55;;;7.72;;
49610;SDS011;35515;48.766;9.176;2023-06-22T03:44:24;9.95;;;7.25;;
49610;SDS011;35515;48.766;9.176;2023-06-22T03:46:52;9.90;;;7.85;;
49610;SDS011;35515;48.766;9.176;2023-06-22T03:49:19;11.85;;;7.75;;
49610;SDS011;35515;48.766;9.176;2023-06-22T03:51:45;10.77;;;7.63;;
49610;SDS011;35515;48.766;9.176;2023-06-22T03:54:12;10.68;;;7.50;;
49610;SDS011;35515;48.766;9.176;2023-06-22T03:56:38;11.70;;;8.27;;
49610;SDS011;35515;48.766;9.176;2023-06-22T03:59:05;9.60;;;7.30;;
49610;SDS011;35515;48.766;9.176;2023-06-22T04:01:31;10.77;;;7.13;;
49610;SDS011;35515;48.766;9.176;2023-06-22T04:03:59;12.60;;;7.82;;
49610;SDS011;35515;48.766;9.176;2023-06-22T04:06:25;11.55;;;7.93;;
49610;SDS011;35515;48.766;9.176;2023-06-22T04:08:52;9.00;;;7.15;;
49610;SDS011;35515;48.766;9.176;2023-06-22T04:11:18;12.65;;;7.95;;
49610;SDS011;35515;48.766;9.176;2023-06-22T04:13:45;10.82;;;7.50;;
49610;SDS011;35515;48.766;9.176;2023-06-22T04:16:11;12.38;;;7.70;;
49610;SDS011;35515;48.766;9.176;2023-06-22T04:18:38;11.98;;;7.95;;
49610;SDS011;35515;48.766;9.176;2023-06-22T04:21:06;9.25;;;7.72;;
49610;SDS011;35515;48.766;9.176;2023-06-22T04:23:32;9.32;;;7.40;;
49610;SDS011;35515;48.766;9.176;2023-06-22T04:25:59;9.50;;;7.47;;
49610;SDS011;35515;48.766;9.176;2023-06-22T04:28:26;11.38;;;7.75;;
49610;SDS011;35515;48.766;9.176;2023-06-22T04:30:52;13.38;;;8.98;;
49610;SDS011;35515;48.766;9.176;2023-06-22T04:33:23;10.77;;;7.65;;
49610;SDS011;35515;48.766;9.176;2023-06-22T04:35:49;13.80;;;8.00;;
49610;SDS011;35515;48.766;9.176;2023-06-22T04:38:17;12.18;;;7.57;;
49610;SDS011;35515;48.766;9.176;2023-06-22T04:40:46;11.55;;;7.97;;
49610;SDS011;35515;48.766;9.176;2023-06-22T04:43:13;11.75;;;8.35;;
49610;SDS011;35515;48.766;9.176;2023-06-22T04:45:39;10.38;;;8.00;;
49610;SDS011;35515;48.766;9.176;2023-06-22T04:48:06;12.48;;;8.90;;
49610;SDS011;35515;48.766;9.176;2023-06-22T04:50:33;13.45;;;8.63;;
49610;SDS011;35515;48.766;9.176;2023-06-22T04:53:00;11.68;;;8.80;;
49610;SDS011;35515;48.766;9.176;2023-06-22T04:55:34;13.60;;;9.65;;
49610;SDS011;35515;48.766;9.176;2023-06-22T04:58:03;14.85;;;9.27;;
49610;SDS011;35515;48.766;9.176;2023-06-22T05:00:31;14.63;;;9.55;;
49610;SDS011;35515;48.766;9.176;2023-06-22T05:03:01;13.73;;;9.77;;
49610;SDS011;35515;48.766;9.176;2023-06-22T05:05:28;12.20;;;9.43;;
49610;SDS011;35515;48.766;9.176;2023-06-22T05:07:56;13.73;;;9.23;;
49610;SDS011;35515;48.766;9.176;2023-06-22T05:10:25;17.67;;;10.53;;
49610;SDS011;35515;48.766;9.176;2023-06-22T05:12:53;15.95;;;9.55;;
49610;SDS011;35515;48.766;9.176;2023-06-22T05:15:20;16.70;;;10.13;;
49610;SDS011;35515;48.766;9.176;2023-06-22T05:17:48;15.02;;;9.50;;
49610;SDS011;35515;48.766;9.176;2023-06-22T05:20:14;14.07;;;10.05;;
49610;SDS011;35515;48.766;9.176;2023-06-22T05:22:43;14.68;;;10.88;;
49610;SDS011;35515;48.766;9.176;2023-06-22T05:25:10;12.98;;;10.10;;
49610;SDS011;35515;48.766;9.176;2023-06-22T05:27:37;15.90;;;10.80;;
49610;SDS011;35515;48.766;9.176;2023-06-22T05:30:07;16.88;;;10.18;;
49610;SDS011;35515;48.766;9.176;2023-06-22T05:32:34;15.80;;;10.23;;
49610;SDS011;35515;48.766;9.176;2023-06-22T05:35:01;13.52;;;9.82;;
49610;SDS011;35515;48.766;9.176;2023-06-22T05:37:28;13.82;;;9.98;;
49610;SDS011;35515;48.766;9.176;2023-06-22T05:39:54;12.50;;;9.60;;
49610;SDS011;35515;48.766;9.176;2023-06-22T05:42:22;12.07;;;8.52;;
49610;SDS011;35515;48.766;9.176;2023-06-22T05:44:50;16.60;;;12.18;;
49610;SDS011;35515;48.766;9.176;2023-06-22T05:47:18;17.23;;;12.18;;
49610;SDS011;35515;48.766;9.176;2023-06-22T05:49:44;13.73;;;9.00;;
49610;SDS011;35515;48.766;9.176;2023-06-22T05:52:11;11.13;;;9.05;;
49610;SDS011;35515;48.766;9.176;2023-06-22T05:54:37;12.38;;;9.13;;
49610;SDS011;35515;48.766;9.176;2023-06-22T05:57:06;13.65;;;8.68;;
49610;SDS011;35515;48.766;9.176;2023-06-22T05:59:33;11.52;;;9.05;;
49610;SDS011;35515;48.766;9.176;2023-06-22T06:01:59;14.13;;;8.85;;
49610;SDS011;35515;48.766;9.176;2023-06-22T06:04:27;12.25;;;8.43;;
49610;SDS011;35515;48.766;9.176;2023-06-22T06:06:54;12.90;;;7.60;;
49610;SDS011;35515;48.766;9.176;2023-06-22T06:09:20;11.98;;;8.48;;
49610;SDS011;35515;48.766;9.176;2023-06-22T06:11:47;10.75;;;8.40;;
49610;SDS011;35515;48.766;9.176;2023-06-22T06:14:13;20.08;;;13.77;;
49610;SDS011;35515;48.766;9.176;2023-06-22T06:16:42;20.60;;;12.07;;
49610;SDS011;35515;48.766;9.176;2023-06-22T06:19:08;12.45;;;8.48;;
49610;SDS011;35515;48.766;9.176;2023-06-22T06:21:36;15.20;;;8.05;;
49610;SDS011;35515;48.766;9.176;2023-06-22T06:24:03;10.60;;;6.90;;
49610;SDS011;35515;48.766;9.176;2023-06-22T06:26:30;11.20;;;7.85;;
49610;SDS011;35515;48.766;9.176;2023-06-22T06:28:59;13.73;;;7.75;;
49610;SDS011;35515;48.766;9.176;2023-06-22T06:31:27;10.93;;;7.88;;
49610;SDS011;35515;48.766;9.176;2023-06-22T06:33:55;9.95;;;6.75;;
49610;SDS011;35515;48.766;9.176;2023-06-22T06:36:22;10.68;;;6.95;;
49610;SDS011;35515;48.766;9.176;2023-06-22T06:38:49;10.90;;;7.35;;
49610;SDS011;35515;48.766;9.176;2023-06-22T06:41:16;11.13;;;6.95;;
49610;SDS011;35515;48.766;9.176;2023-06-22T06:43:42;11.07;;;7.63;;
49610;SDS011;35515;48.766;9.176;2023-06-22T06:46:09;10.63;;;6.82;;
49610;SDS011;35515;48.766;9.176;2023-06-22T06:48:36;10.48;;;6.88;;
49610;SDS011;35515;48.766;9.176;2023-06-22T06:51:02;10.88;;;6.63;;
49610;SDS011;35515;48.766;9.176;2023-06-22T06:53:29;12.88;;;6.60;;
49610;SDS011;35515;48.766;9.176;2023-06-22T06:55:57;12.30;;;7.88;;
49610;SDS011;35515;48.766;9.176;2023-06-22T06:58:23;11.63;;;6.78;;
49610;SDS011;35515;48.766;9.176;2023-06-22T07:00:50;12.18;;;6.82;;
49610;SDS011;35515;48.766;9.176;2023-06-22T07:03:16;9.85;;;6.40;;
49610;SDS011;35515;48.766;9.176;2023-06-22T07:05:43;8.35;;;5.50;;
49610;SDS011;35515;48.766;9.176;2023-06-22T07:08:09;9.90;;;6.35;;
49610;SDS011;35515;48.766;9.176;2023-06-22T07:10:36;9.90;;;6.43;;
49610;SDS011;35515;48.766;9.176;2023-06-22T07:13:04;9.90;;;6.40;;
49610;SDS011;35515;48.766;9.176;2023-06-22T07:15:30;7.90;;;6.28;;
49610;SDS011;35515;48.766;9.176;2023-06-22T07:17:57;11.02;;;6.80;;
49610;SDS011;35515;48.766;9.176;2023-06-22T07:20:23;9.35;;;6.25;;
49610;SDS011;35515;48.766;9.176;2023-06-22T07:22:51;9.02;;;5.97;;
49610;SDS011;35515;48.766;9.176;2023-06-22T07:25:18;12.85;;;6.22;;
49610;SDS011;35515;48.766;9.176;2023-06-22T07:27:45;8.25;;;5.93;;
49610;SDS011;35515;48.766;9.176;2023-06-22T07:30:14;11.63;;;5.90;;
49610;SDS011;35515;48.766;9.176;2023-06-22T07:32:41;12.32;;;6.43;;
49610;SDS011;35515;48.766;9.176;2023-06-22T07:35:08;9.82;;;6.07;;
49610;SDS011;35515;48.766;9.176;2023-06-22T07:37:34;10.35;;;5.97;;
49610;SDS011;35515;48.766;9.176;2023-06-22T07:40:01;11.07;;;5.90;;
49610;SDS011;35515;48.766;9.176;2023-06-22T07:42:31;12.15;;;6.25;;
49610;SDS011;35515;48.766;9.176;2023-06-22T07:44:58;10.32;;;6.60;;
49610;SDS011;35515;48.766;9.176;2023-06-22T07:47:26;12.52;;;6.63;;
49610;SDS011;35515;48.766;9.176;2023-06-22T07:49:53;11.82;;;6.80;;
49610;SDS011;35515;48.766;9.176;2023-06-22T07:52:22;8.27;;;5.47;;
49610;SDS011;35515;48.766;9.176;2023-06-22T07:54:49;9.77;;;5.78;;
49610;SDS011;35515;48.766;9.176;2023-06-22T07:57:16;11.55;;;5.93;;
49610;SDS011;35515;48.766;9.176;2023-06-22T07:59:42;10.43;;;6.13;;
49610;SDS011;35515;48.766;9.176;2023-06-22T08:02:09;10.00;;;5.80;;
49610;SDS011;35515;48.766;9.176;2023-06-22T08:04:37;10.88;;;6.35;;
49610;SDS011;35515;48.766;9.176;2023-06-22T08:07:04;9.57;;;5.68;;
49610;SDS011;35515;48.766;9.176;2023-06-22T08:09:34;9.23;;;6.22;;
49610;SDS011;35515;48.766;9.176;2023-06-22T08:12:00;9.43;;;6.22;;
49610;SDS011;35515;48.766;9.176;2023-06-22T08:14:27;11.50;;;6.18;;
49610;SDS011;35515;48.766;9.176;2023-06-22T08:16:55;13.73;;;6.38;;
49610;SDS011;35515;48.766;9.176;2023-06-22T08:19:22;9.73;;;5.40;;
49610;SDS011;35515;48.766;9.176;2023-06-22T08:21:50;11.45;;;5.82;;
49610;SDS011;35515;48.766;9.176;2023-06-22T08:24:16;9.32;;;6.15;;
49610;SDS011;35515;48.766;9.176;2023-06-22T08:26:43;7.78;;;5.25;;
49610;SDS011;35515;48.766;9.176;2023-06-22T08:29:10;26.38;;;6.05;;
49610;SDS011;35515;48.766;9.176;2023-06-22T08:31:36;10.25;;;4.97;;
49610;SDS011;35515;48.766;9.176;2023-06-22T08:34:02;8.48;;;5.43;;
49610;SDS011;35515;48.766;9.176;2023-06-22T08:36:29;8.98;;;5.50;;
49610;SDS011;35515;48.766;9.176;2023-06-22T08:38:59;11.43;;;5.28;;
49610;SDS011;35515;48.766;9.176;2023-06-22T08:41:26;8.50;;;4.95;;
49610;SDS011;35515;48.766;9.176;2023-06-22T08:43:52;7.65;;;5.18;;
49610;SDS011;35515;48.766;9.176;2023-06-22T08:46:19;10.35;;;6.22;;
49610;SDS011;35515;48.766;9.176;2023-06-22T08:48:48;11.90;;;5.93;;
49610;SDS011;35515;48.766;9.176;2023-06-22T08:51:15;9.23;;;5.13;;
49610;SDS011;35515;48.766;9.176;2023-06-22T08:53:42;12.55;;;5.65;;
49610;SDS011;35515;48.766;9.176;2023-06-22T08:56:11;12.75;;;5.68;;
49610;SDS011;35515;48.766;9.176;2023-06-22T08:58:38;11.63;;;5.47;;
49610;SDS011;35515;48.766;9.176;2023-06-22T09:01:04;11.35;;;5.25;;
49610;SDS011;35515;48.766;9.176;2023-06-22T09:03:31;8.95;;;5.15;;
49610;SDS011;35515;48.766;9.176;2023-06-22T09:05:57;13.43;;;6.40;;
49610;SDS011;35515;48.766;9.176;2023-06-22T09:08:24;10.32;;;5.90;;
49610;SDS011;35515;48.766;9.176;2023-06-22T09:10:50;12.80;;;5.38;;
49610;SDS011;35515;48.766;9.176;2023-06-22T09:13:18;9.25;;;5.40;;
49610;SDS011;35515;48.766;9.176;2023-06-22T09:15:45;12.70;;;5.32;;
49610;SDS011;35515;48.766;9.176;2023-06-22T09:18:12;11.05;;;5.70;;
49610;SDS011;35515;48.766;9.176;2023-06-22T09:20:39;13.85;;;5.70;;
49610;SDS011;35515;48.766;9.176;2023-06-22T09:23:06;11.98;;;6.53;;
49610;SDS011;35515;48.766;9.176;2023-06-22T09:25:32;14.10;;;5.68;;
49610;SDS011;35515;48.766;9.176;2023-06-22T09:27:59;9.18;;;5.75;;
49610;SDS011;35515;48.766;9.176;2023-06-22T09:30:27;9.40;;;6.55;;
49610;SDS011;35515;48.766;9.176;2023-06-22T09:32:53;7.70;;;5.97;;
49610;SDS011;35515;48.766;9.176;2023-06-22T09:35:20;10.38;;;5.80;;
49610;SDS011;35515;48.766;9.176;2023-06-22T09:37:46;9.70;;;5.65;;
49610;SDS011;35515;48.766;9.176;2023-06-22T09:40:13;11.30;;;5.38;;
49610;SDS011;35515;48.766;9.176;2023-06-22T09:42:41;10.07;;;5.72;;
49610;SDS011;35515;48.766;9.176;2023-06-22T09:45:08;11.43;;;5.90;;
49610;SDS011;35515;48.766;9.176;2023-06-22T09:47:37;15.18;;;6.47;;
49610;SDS011;35515;48.766;9.176;2023-06-22T09:50:04;8.85;;;5.32;;
49610;SDS011;35515;48.766;9.176;2023-06-22T09:52:31;15.10;;;5.65;;
49610;SDS011;35515;48.766;9.176;2023-06-22T09:54:57;10.52;;;5.72;;
49610;SDS011;35515;48.766;9.176;2023-06-22T09:57:24;14.85;;;7.32;;
49610;SDS011;35515;48.766;9.176;2023-06-22T09:59:50;11.50;;;5.13;;
49610;SDS011;35515;48.766;9.176;2023-06-22T10:02:17;10.90;;;6.13;;
49610;SDS011;35515;48.766;9.176;2023-06-22T10:04:45;12.68;;;6.65;;
49610;SDS011;35515;48.766;9.176;2023-06-22T10:07:11;12.73;;;6.00;;
49610;SDS011;35515;48.766;9.176;2023-06-22T10:09:38;22.45;;;10.63;;
49610;SDS011;35515;48.766;9.176;2023-06-22T10:12:05;12.77;;;6.45;;
49610;SDS011;35515;48.766;9.176;2023-06-22T10:14:32;11.48;;;5.80;;
49610;SDS011;35515;48.766;9.176;2023-06-22T10:16:58;13.20;;;6.40;;
49610;SDS011;35515;48.766;9.176;2023-06-22T10:19:25;10.93;;;6.32;;
49610;SDS011;35515;48.766;9.176;2023-06-22T10:21:53;13.90;;;6.55;;
49610;SDS011;35515;48.766;9.176;2023-06-22T10:24:20;11.63;;;5.95;;
49610;SDS011;35515;48.766;9.176;2023-06-22T10:26:46;12.93;;;6.22;;
49610;SDS011;35515;48.766;9.176;2023-06-22T10:29:13;11.75;;;6.00;;
49610;SDS011;35515;48.766;9.176;2023-06-22T10:31:39;10.75;;;5.88;;
49610;SDS011;35515;48.766;9.176;2023-06-22T10:34:06;14.68;;;5.55;;
49610;SDS011;35515;48.766;9.176;2023-06-22T10:36:32;13.50;;;6.25;;
49610;SDS011;35515;48.766;9.176;2023-06-22T10:39:00;15.20;;;6.00;;
49610;SDS011;35515;48.766;9.176;2023-06-22T10:41:28;13.13;;;5.95;;
49610;SDS011;35515;48.766;9.176;2023-06-22T10:43:55;13.77;;;7.07;;
49610;SDS011;35515;48.766;9.176;2023-06-22T10:46:23;9.93;;;6.05;;
49610;SDS011;35515;48.766;9.176;2023-06-22T10:48:50;13.10;;;6.20;;
49610;SDS011;35515;48.766;9.176;2023-06-22T10:51:19;13.75;;;6.40;;
49610;SDS011;35515;48.766;9.176;2023-06-22T10:53:45;10.40;;;6.40;;
49610;SDS011;35515;48.766;9.176;2023-06-22T10:56:13;13.45;;;6.88;;
49610;SDS011;35515;48.766;9.176;2023-06-22T10:58:40;14.38;;;6.60;;
49610;SDS011;35515;48.766;9.176;2023-06-22T11:01:06;12.38;;;5.88;;
49610;SDS011;35515;48.766;9.176;2023-06-22T11:03:33;13.20;;;6.70;;
49610;SDS011;35515;48.766;9.176;2023-06-22T11:05:59;9.13;;;6.07;;
49610;SDS011;35515;48.766;9.176;2023-06-22T11:08:26;11.80;;;6.20;;
49610;SDS011;35515;48.766;9.176;2023-06-22T11:10:52;11.13;;;6.18;;
49610;SDS011;35515;48.766;9.176;2023-06-22T11:13:20;11.80;;;6.20;;
49610;SDS011;35515;48.766;9.176;2023-06-22T11:15:46;14.45;;;6.50;;
49610;SDS011;35515;48.766;9.176;2023-06-22T11:18:13;16.63;;;7.18;;
49610;SDS011;35515;48.766;9.176;2023-06-22T11:20:39;13.70;;;6.05;;
49610;SDS011;35515;48.766;9.176;2023-06-22T11:23:06;15.23;;;7.65;;
49610;SDS011;35515;48.766;9.176;2023-06-22T11:25:33;14.02;;;7.45;;
49610;SDS011;35515;48.766;9.176;2023-06-22T11:28:01;20.17;;;7.88;;
49610;SDS011;35515;48.766;9.176;2023-06-22T11:30:29;14.23;;;7.97;;
49610;SDS011;35515;48.766;9.176;2023-06-22T11:32:56;16.52;;;7.30;;
49610;SDS011;35515;48.766;9.176;2023-06-22T11:35:23;14.38;;;7.50;;
49610;SDS011;35515;48.766;9.176;2023-06-22T11:37:50;15.60;;;7.00;;
49610;SDS011;35515;48.766;9.176;2023-06-22T11:40:16;21.25;;;6.53;;
49610;SDS011;35515;48.766;9.176;2023-06-22T11:42:43;13.52;;;6.47;;
49610;SDS011;35515;48.766;9.176;2023-06-22T11:45:10;11.75;;;6.07;;
49610;SDS011;35515;48.766;9.176;2023-06-22T11:47:39;12.82;;;6.05;;
49610;SDS011;35515;48.766;9.176;2023-06-22T11:50:06;15.32;;;6.47;;
49610;SDS011;35515;48.766;9.176;2023-06-22T11:52:33;11.50;;;6.45;;
49610;SDS011;35515;48.766;9.176;2023-06-22T11:55:00;13.13;;;6.72;;
49610;SDS011;35515;48.766;9.176;2023-06-22T11:57:28;14.02;;;7.50;;
49610;SDS011;35515;48.766;9.176;2023-06-22T11:59:55;10.65;;;6.97;;
49610;SDS011;35515;48.766;9.176;2023-06-22T12:02:21;11.75;;;6.78;;
49610;SDS011;35515;48.766;9.176;2023-06-22T12:04:49;12.48;;;6.15;;
49610;SDS011;35515;48.766;9.176;2023-06-22T12:07:17;16.20;;;6.85;;
49610;SDS011;35515;48.766;9.176;2023-06-22T12:09:44;17.98;;;6.80;;
49610;SDS011;35515;48.766;9.176;2023-06-22T12:12:10;12.63;;;6.40;;
49610;SDS011;35515;48.766;9.176;2023-06-22T12:14:37;15.10;;;7.45;;
49610;SDS011;35515;48.766;9.176;2023-06-22T12:17:03;12.30;;;6.18;;
49610;SDS011;35515;48.766;9.176;2023-06-22T12:19:30;9.00;;;5.88;;
49610;SDS011;35515;48.766;9.176;2023-06-22T12:21:58;14.90;;;6.53;;
49610;SDS011;35515;48.766;9.176;2023-06-22T12:24:24;14.23;;;6.80;;
49610;SDS011;35515;48.766;9.176;2023-06-22T12:26:51;14.48;;;7.45;;
49610;SDS011;35515;48.766;9.176;2023-06-22T12:29:17;11.82;;;7.05;;
49610;SDS011;35515;48.766;9.176;2023-06-22T12:31:44;13.45;;;7.38;;
49610;SDS011;35515;48.766;9.176;2023-06-22T12:34:10;13.52;;;6.93;;
49610;SDS011;35515;48.766;9.176;2023-06-22T12:36:37;13.43;;;7.10;;
49610;SDS011;35515;48.766;9.176;2023-06-22T12:39:05;11.20;;;6.68;;
49610;SDS011;35515;48.766;9.176;2023-06-22T12:41:31;12.13;;;6.55;;
49610;SDS011;35515;48.766;9.176;2023-06-22T12:43:58;16.33;;;7.10;;
49610;SDS011;35515;48.766;9.176;2023-06-22T12:46:24;13.43;;;6.57;;
49610;SDS011;35515;48.766;9.176;2023-06-22T12:48:51;13.77;;;6.50;;
49610;SDS011;35515;48.766;9.176;2023-06-22T12:51:21;14.93;;;6.10;;
49610;SDS011;35515;48.766;9.176;2023-06-22T12:53:48;13.18;;;5.80;;
49610;SDS011;35515;48.766;9.176;2023-06-22T12:56:16;14.32;;;6.00;;
49610;SDS011;35515;48.766;9.176;2023-06-22T12:58:42;11.52;;;6.15;;
49610;SDS011;35515;48.766;9.176;2023-06-22T13:01:09;10.82;;;5.97;;
49610;SDS011;35515;48.766;9.176;2023-06-22T13:03:35;9.95;;;6.07;;
49610;SDS011;35515;48.766;9.176;2023-06-22T13:06:02;13.05;;;5.97;;
49610;SDS011;35515;48.766;9.176;2023-06-22T13:08:29;10.02;;;6.20;;
49610;SDS011;35515;48.766;9.176;2023-06-22T13:10:56;12.52;;;5.82;;
49610;SDS011;35515;48.766;9.176;2023-06-22T13:13:25;16.20;;;6.65;;
49610;SDS011;35515;48.766;9.176;2023-06-22T13:15:52;11.55;;;6.15;;
49610;SDS011;35515;48.766;9.176;2023-06-22T13:18:19;12.75;;;5.43;;
49610;SDS011;35515;48.766;9.176;2023-06-22T13:20:45;11.65;;;6.53;;
49610;SDS011;35515;48.766;9.176;2023-06-22T13:23:12;14.68;;;6.65;;
49610;SDS011;35515;48.766;9.176;2023-06-22T13:25:38;12.32;;;6.53;;
49610;SDS011;35515;48.766;9.176;2023-06-22T13:28:05;10.48;;;6.05;;
49610;SDS011;35515;48.766;9.176;2023-06-22T13:30:33;12.50;;;6.90;;
49610;SDS011;35515;48.766;9.176;2023-06-22T13:32:59;13.48;;;6.32;;
49610;SDS011;35515;48.766;9.176;2023-06-22T13:35:26;13.18;;;6.35;;
49610;SDS011;35515;48.766;9.176;2023-06-22T13:37:53;14.70;;;6.22;;
49610;SDS011;35515;48.766;9.176;2023-06-22T13:40:19;12.27;;;5.95;;
49610;SDS011;35515;48.766;9.176;2023-06-22T13:42:46;10.43;;;6.20;;
49610;SDS011;35515;48.766;9.176;2023-06-22T13:45:12;11.10;;;5.82;;
49610;SDS011;35515;48.766;9.176;2023-06-22T13:47:42;12.15;;;5.82;;
49610;SDS011;35515;48.766;9.176;2023-06-22T13:50:09;15.90;;;6.22;;
49610;SDS011;35515;48.766;9.176;2023-06-22T13:52:37;13.70;;;5.97;;
49610;SDS011;35515;48.766;9.176;2023-06-22T13:55:04;16.08;;;5.80;;
49610;SDS011;35515;48.766;9.176;2023-06-22T13:57:32;13.18;;;6.75;;
49610;SDS011;35515;48.766;9.176;2023-06-22T13:59:59;11.32;;;6.40;;
49610;SDS011;35515;48.766;9.176;2023-06-22T14:02:25;12.88;;;6.15;;
49610;SDS011;35515;48.766;9.176;2023-06-22T14:04:54;11.35;;;5.60;;
49610;SDS011;35515;48.766;9.176;2023-06-22T14:07:20;12.05;;;5.78;;
49610;SDS011;35515;48.766;9.176;2023-06-22T14:09:49;10.82;;;5.88;;
49610;SDS011;35515;48.766;9.176;2023-06-22T14:12:15;14.27;;;6.70;;
49610;SDS011;35515;48.766;9.176;2023-06-22T14:14:42;12.20;;;5.80;;
49610;SDS011;35515;48.766;9.176;2023-06-22T14:17:09;15.02;;;6.50;;
49610;SDS011;35515;48.766;9.176;2023-06-22T14:19:36;10.35;;;5.93;;
49610;SDS011;35515;48.766;9.176;2023-06-22T14:22:04;12.90;;;5.50;;
49610;SDS011;35515;48.766;9.176;2023-06-22T14:24:31;11.55;;;5.03;;
49610;SDS011;35515;48.766;9.176;2023-06-22T14:26:58;13.75;;;6.13;;
49610;SDS011;35515;48.766;9.176;2023-06-22T14:29:27;11.00;;;5.90;;
49610;SDS011;35515;48.766;9.176;2023-06-22T14:31:54;12.02;;;5.72;;
49610;SDS011;35515;48.766;9.176;2023-06-22T14:34:20;8.95;;;4.50;;
49610;SDS011;35515;48.766;9.176;2023-06-22T14:36:48;14.90;;;5.47;;